Time;durP1;ratioP1;P1;durP2;ratioP2;P2;SDS_P1;SDS_P2;PMS_P1;PMS_P2;Temp;Humidity;BMP_temperature;BMP_pressure;BME280_temperature;BME280_humidity;BME280_pressure;Samples;Min_cycle;Max_cycle;Signal;HPM_P1;HPM_P2
2022/11/22 00:00:15;;;;;;;5.13;2.28;;;;;;;4.23;100.00;95315.06;5042157;28;20037;-58
2022/11/22 00:02:42;;;;;;;5.72;2.65;;;;;;;4.21;100.00;95308.38;5037572;28;20059;-56
2022/11/22 00:05:09;;;;;;;6.90;3.05;;;;;;;4.17;100.00;95297.38;5039547;28;20053;-58
2022/11/22 00:07:36;;;;;;;7.22;2.40;;;;;;;4.21;100.00;95293.13;5028833;28;20040;-58
2022/11/22 00:10:05;;;;;;;5.47;1.90;;;;;;;4.24;100.00;95284.53;5043987;28;20456;-58
2022/11/22 00:12:32;;;;;;;8.77;2.20;;;;;;;4.27;100.00;95292.06;5040453;28;20108;-56
2022/11/22 00:14:59;;;;;;;3.80;1.92;;;;;;;4.25;100.00;95296.06;5029628;28;20308;-58
2022/11/22 00:17:25;;;;;;;8.10;2.40;;;;;;;4.26;100.00;95295.81;5028899;28;20053;-58
2022/11/22 00:19:52;;;;;;;4.53;2.08;;;;;;;4.22;100.00;95289.34;5038794;28;20041;-58
2022/11/22 00:22:18;;;;;;;6.88;2.03;;;;;;;4.23;100.00;95280.25;5027392;28;20106;-58
2022/11/22 00:24:45;;;;;;;5.65;2.20;;;;;;;4.33;100.00;95284.03;5046047;28;20080;-58
2022/11/22 00:27:11;;;;;;;4.38;1.98;;;;;;;4.31;100.00;95286.97;5032680;28;20464;-57
2022/11/22 00:29:38;;;;;;;6.18;2.42;;;;;;;4.29;100.00;95284.56;5044114;28;20044;-58
2022/11/22 00:32:04;;;;;;;5.57;2.00;;;;;;;4.36;100.00;95280.81;5026097;28;20041;-58
2022/11/22 00:34:31;;;;;;;4.38;1.80;;;;;;;4.38;100.00;95284.84;5025959;28;20048;-55
2022/11/22 00:36:57;;;;;;;5.53;2.30;;;;;;;4.28;100.00;95288.28;5026121;28;20141;-56
2022/11/22 00:39:24;;;;;;;5.63;1.80;;;;;;;4.29;100.00;95287.25;5025707;28;20046;-55
2022/11/22 00:41:50;;;;;;;9.30;2.67;;;;;;;4.32;100.00;95290.47;5028859;28;20033;-58
2022/11/22 00:44:17;;;;;;;8.05;2.97;;;;;;;4.35;100.00;95298.75;5044804;28;20491;-57
2022/11/22 00:46:43;;;;;;;6.95;2.13;;;;;;;4.32;100.00;95302.00;5045854;28;20102;-58
2022/11/22 00:49:10;;;;;;;4.60;1.88;;;;;;;4.41;100.00;95303.09;5044596;28;20048;-56
2022/11/22 00:51:36;;;;;;;5.70;2.30;;;;;;;4.47;100.00;95322.66;5041364;28;20087;-57
2022/11/22 00:54:03;;;;;;;4.93;2.30;;;;;;;4.49;100.00;95328.56;5045468;28;20080;-58
2022/11/22 00:56:30;;;;;;;5.88;2.28;;;;;;;4.57;100.00;95331.81;5044985;28;20049;-58
2022/11/22 00:58:57;;;;;;;7.25;2.22;;;;;;;4.76;100.00;95332.13;5041269;28;20069;-57
2022/11/22 01:01:24;;;;;;;4.60;2.20;;;;;;;4.49;100.00;95346.53;5025181;28;20073;-59
2022/11/22 01:03:51;;;;;;;12.40;2.75;;;;;;;4.32;100.00;95350.22;5029680;28;20048;-54
2022/11/22 01:06:17;;;;;;;7.32;2.78;;;;;;;4.21;100.00;95346.69;5042367;28;20292;-59
2022/11/22 01:08:44;;;;;;;7.75;3.10;;;;;;;4.14;100.00;95351.47;5043262;28;20041;-58
2022/11/22 01:11:11;;;;;;;5.15;2.50;;;;;;;4.13;100.00;95352.53;5039667;28;20239;-56
2022/11/22 01:13:38;;;;;;;6.05;2.63;;;;;;;4.15;100.00;95361.09;5037144;28;20049;-55
2022/11/22 01:16:07;;;;;;;6.50;2.92;;;;;;;4.14;100.00;95362.19;5037757;28;20049;-57
2022/11/22 01:18:34;;;;;;;8.25;2.75;;;;;;;4.22;100.00;95375.09;5038650;28;20045;-58
2022/11/22 01:21:01;;;;;;;6.30;2.92;;;;;;;4.24;100.00;95364.91;5038694;28;20048;-55
2022/11/22 01:23:28;;;;;;;4.40;2.50;;;;;;;4.31;100.00;95361.97;5039436;28;20049;-55
2022/11/22 01:25:54;;;;;;;6.32;2.95;;;;;;;4.36;100.00;95361.22;5044714;28;20120;-58
2022/11/22 01:28:21;;;;;;;6.10;2.75;;;;;;;4.42;100.00;95358.28;5049089;28;20095;-56
2022/11/22 01:30:52;;;;;;;5.47;2.33;;;;;;;4.46;100.00;95355.09;5038244;28;20041;-56
2022/11/22 01:33:19;;;;;;;4.47;2.22;;;;;;;4.56;100.00;95355.09;5037354;28;20102;-56
2022/11/22 01:35:46;;;;;;;6.07;2.20;;;;;;;4.63;100.00;95369.06;5047365;28;20559;-58
2022/11/22 01:38:12;;;;;;;5.55;2.67;;;;;;;4.69;100.00;95369.91;5043993;28;20045;-56
2022/11/22 01:40:39;;;;;;;4.90;2.60;;;;;;;4.72;100.00;95368.56;5035466;28;20586;-57
2022/11/22 01:43:21;;;;;;;5.75;2.65;;;;;;;4.52;100.00;95376.28;5042823;28;20474;-56
2022/11/22 01:46:15;;;;;;;7.57;2.55;;;;;;;4.53;100.00;95374.38;5038173;28;20559;-55
2022/11/22 01:48:55;;;;;;;5.78;2.95;;;;;;;4.29;100.00;95372.16;5048036;28;20122;-56
2022/11/22 01:51:28;;;;;;;7.15;2.95;;;;;;;4.18;100.00;95379.34;5029524;28;20046;-56
2022/11/22 01:53:59;;;;;;;7.45;3.03;;;;;;;4.23;100.00;95384.72;5041140;28;20483;-56
2022/11/22 01:56:28;;;;;;;6.63;2.80;;;;;;;4.23;100.00;95375.88;5033004;28;20052;-54
2022/11/22 01:59:05;;;;;;;4.90;2.55;;;;;;;4.38;100.00;95378.63;5035985;28;20081;-57
2022/11/22 02:01:33;;;;;;;6.13;2.72;;;;;;;4.32;100.00;95385.03;5028727;28;20121;-56
2022/11/22 02:04:01;;;;;;;6.65;2.60;;;;;;;4.43;100.00;95385.91;5033053;28;20045;-58
2022/11/22 02:06:55;;;;;;;5.72;2.53;;;;;;;4.42;100.00;95382.41;5033629;28;20041;-56
2022/11/22 02:09:22;;;;;;;5.80;2.60;;;;;;;4.31;100.00;95388.78;5037592;28;20513;-57
2022/11/22 02:11:54;;;;;;;6.40;2.40;;;;;;;4.44;100.00;95382.16;5033077;28;20116;-58
2022/11/22 02:14:25;;;;;;;5.90;2.58;;;;;;;4.47;100.00;95380.81;5038061;28;20065;-55
2022/11/22 02:16:51;;;;;;;4.88;2.10;;;;;;;4.43;100.00;95383.22;5031559;28;20045;-58
2022/11/22 02:19:29;;;;;;;6.30;2.78;;;;;;;4.50;100.00;95378.41;5048727;28;20086;-56
2022/11/22 02:22:02;;;;;;;5.53;2.38;;;;;;;4.48;100.00;95379.72;5028976;28;20038;-56
2022/11/22 02:24:43;;;;;;;5.53;2.90;;;;;;;4.46;100.00;95382.69;5034125;28;20065;-56
2022/11/22 02:27:09;;;;;;;6.22;2.60;;;;;;;4.41;100.00;95394.19;5034964;28;20077;-57
2022/11/22 02:29:37;;;;;;;9.50;2.83;;;;;;;4.56;100.00;95389.97;5047373;28;20540;-55
2022/11/22 02:32:03;;;;;;;5.28;2.47;;;;;;;4.69;100.00;95386.00;5027897;28;20037;-57
2022/11/22 02:34:40;;;;;;;4.97;2.38;;;;;;;4.69;100.00;95388.66;5036963;28;20517;-56
2022/11/22 02:37:07;;;;;;;6.90;2.10;;;;;;;4.78;100.00;95397.81;5045328;28;20069;-57
2022/11/22 02:39:34;;;;;;;5.63;2.30;;;;;;;4.66;100.00;95392.69;5041457;28;20032;-56
2022/11/22 02:42:00;;;;;;;6.18;2.28;;;;;;;4.64;100.00;95392.13;5049827;28;20500;-58
2022/11/22 02:44:27;;;;;;;4.53;2.53;;;;;;;4.72;100.00;95401.53;5047308;28;20044;-56
2022/11/22 02:46:54;;;;;;;6.15;2.45;;;;;;;4.73;100.00;95405.84;5047927;28;20044;-57
2022/11/22 02:49:23;;;;;;;5.82;2.00;;;;;;;4.69;100.00;95402.06;5048496;28;20575;-57
2022/11/22 02:51:51;;;;;;;4.97;2.00;;;;;;;4.76;100.00;95399.94;5047427;28;20087;-57
2022/11/22 02:54:18;;;;;;;7.30;2.00;;;;;;;4.66;100.00;95400.72;5045926;28;20040;-57
2022/11/22 02:56:45;;;;;;;5.43;2.10;;;;;;;4.42;100.00;95401.16;5030914;28;20483;-58
2022/11/22 02:59:11;;;;;;;3.92;2.03;;;;;;;4.06;100.00;95408.22;5047838;28;20083;-55
2022/11/22 03:01:39;;;;;;;5.00;2.22;;;;;;;4.14;100.00;95410.41;5046354;28;20045;-57
2022/11/22 03:04:05;;;;;;;5.68;2.40;;;;;;;4.15;100.00;95425.41;5032359;28;20041;-57
2022/11/22 03:06:32;;;;;;;4.97;2.28;;;;;;;4.23;100.00;95419.56;5039513;28;20077;-57
2022/11/22 03:08:58;;;;;;;5.68;2.38;;;;;;;4.21;100.00;95423.56;5035323;28;20041;-53
2022/11/22 03:11:25;;;;;;;5.53;2.72;;;;;;;3.97;100.00;95424.75;5029171;28;20415;-57
2022/11/22 03:13:51;;;;;;;7.45;2.88;;;;;;;4.08;100.00;95422.94;5036064;28;20038;-55
2022/11/22 03:16:18;;;;;;;5.35;2.25;;;;;;;3.94;100.00;95427.94;5041025;28;20102;-57
2022/11/22 03:18:44;;;;;;;4.95;2.10;;;;;;;3.86;100.00;95423.06;5032863;28;20072;-54
2022/11/22 03:21:11;;;;;;;4.93;2.72;;;;;;;3.83;100.00;95432.41;5043729;28;20095;-56
2022/11/22 03:23:37;;;;;;;7.30;2.17;;;;;;;3.81;100.00;95423.84;5041317;28;20494;-57
2022/11/22 03:26:08;;;;;;;4.85;2.47;;;;;;;3.87;100.00;95438.88;5047104;28;20060;-57
2022/11/22 03:28:35;;;;;;;4.72;2.53;;;;;;;3.97;100.00;95437.31;5031708;28;20041;-58
2022/11/22 03:31:05;;;;;;;4.50;2.30;;;;;;;4.05;100.00;95444.88;5029712;28;20068;-56
2022/11/22 03:33:33;;;;;;;4.85;2.72;;;;;;;4.03;100.00;95441.66;5036297;28;20610;-59
2022/11/22 03:36:00;;;;;;;3.15;1.73;;;;;;;4.12;100.00;95441.97;5027453;28;20073;-58
2022/11/22 03:38:26;;;;;;;4.60;2.22;;;;;;;4.08;100.00;95438.19;5046123;28;20044;-56
2022/11/22 03:40:52;;;;;;;6.07;2.20;;;;;;;4.21;100.00;95448.50;5029017;28;20050;-58
2022/11/22 03:43:19;;;;;;;3.80;1.60;;;;;;;4.18;100.00;95451.69;5040818;28;20464;-58
2022/11/22 03:45:46;;;;;;;4.82;1.92;;;;;;;4.16;100.00;95445.75;5046094;28;20468;-56
2022/11/22 03:48:13;;;;;;;3.83;1.75;;;;;;;4.20;100.00;95446.06;5037152;28;20073;-58
2022/11/22 03:50:39;;;;;;;5.65;2.03;;;;;;;4.06;100.00;95446.53;5034478;28;20068;-57
2022/11/22 03:53:06;;;;;;;5.00;1.88;;;;;;;4.09;100.00;95447.88;5046029;28;20114;-56
2022/11/22 03:55:32;;;;;;;6.10;1.70;;;;;;;4.15;100.00;95438.78;5039510;28;20219;-55
2022/11/22 03:57:59;;;;;;;5.50;1.88;;;;;;;4.19;100.00;95434.53;5026717;28;20111;-58
2022/11/22 04:00:25;;;;;;;4.65;1.60;;;;;;;4.08;100.00;95427.50;5038008;28;20053;-57
2022/11/22 04:02:52;;;;;;;5.72;1.60;;;;;;;4.08;100.00;95440.88;5034551;28;20391;-54
2022/11/22 04:05:18;;;;;;;5.80;1.42;;;;;;;3.99;100.00;95443.25;5026122;28;20116;-57
2022/11/22 04:07:45;;;;;;;6.03;1.60;;;;;;;4.05;100.00;95447.56;5027067;28;20138;-56
2022/11/22 04:10:12;;;;;;;3.72;1.65;;;;;;;3.97;100.00;95461.44;5035653;28;20489;-59
2022/11/22 04:12:41;;;;;;;3.35;1.63;;;;;;;3.81;100.00;95460.50;5031032;28;20113;-55
2022/11/22 04:15:08;;;;;;;5.18;1.42;;;;;;;3.80;100.00;95461.59;5025761;28;20455;-56
2022/11/22 04:17:40;;;;;;;8.25;1.73;;;;;;;3.83;100.00;95459.19;5045207;28;20044;-58
2022/11/22 04:22:57;;;;;;;5.95;1.23;;;;;;;3.49;100.00;95451.41;5034137;28;19966;-57
2022/11/22 04:25:26;;;;;;;4.93;1.58;;;;;;;3.43;100.00;95450.56;5036098;28;20049;-55
2022/11/22 04:27:53;;;;;;;7.82;1.65;;;;;;;3.45;100.00;95448.44;5036245;28;20055;-52
2022/11/22 04:30:20;;;;;;;4.88;1.65;;;;;;;3.47;100.00;95453.56;5026938;28;20034;-57
2022/11/22 04:32:46;;;;;;;8.65;1.85;;;;;;;3.60;100.00;95449.63;5027384;28;20468;-57
2022/11/22 04:35:15;;;;;;;8.82;1.58;;;;;;;3.79;100.00;95455.41;5026210;28;20465;-55
2022/11/22 04:37:42;;;;;;;8.82;1.70;;;;;;;3.90;100.00;95456.28;5025745;28;20077;-57
2022/11/22 04:40:09;;;;;;;5.25;1.23;;;;;;;3.69;100.00;95452.66;5025107;28;20053;-57
2022/11/22 04:45:21;;;;;;;5.03;1.17;;;;;;;3.68;100.00;95443.81;5045637;28;20064;-58
2022/11/22 04:48:00;;;;;;;7.68;1.70;;;;;;;3.59;100.00;95448.03;5045256;28;20722;-57
2022/11/22 04:53:14;;;;;;;5.78;1.40;;;;;;;3.07;100.00;95443.00;5027352;28;20034;-58
2022/11/22 04:55:43;;;;;;;4.90;1.67;;;;;;;2.80;100.00;95449.13;5030413;28;20492;-56
2022/11/22 04:58:10;;;;;;;11.48;3.80;;;;;;;2.61;100.00;95448.63;5039107;28;20045;-58
2022/11/22 05:00:37;;;;;;;5.90;2.25;;;;;;;2.47;100.00;95457.00;5037252;28;20537;-57
2022/11/22 05:03:05;;;;;;;6.38;2.08;;;;;;;2.32;100.00;95462.97;5040583;28;20080;-58
2022/11/22 05:05:36;;;;;;;9.35;1.40;;;;;;;2.30;100.00;95467.75;5030543;28;20041;-58
2022/11/22 05:08:04;;;;;;;5.10;1.67;;;;;;;2.14;100.00;95472.06;5048224;28;20041;-58
2022/11/22 05:10:55;;;;;;;10.48;2.45;;;;;;;1.99;100.00;95480.66;5042212;28;20099;-56
2022/11/22 05:13:19;;;;;;;7.15;2.22;;;;;;;1.92;100.00;95480.81;5037785;28;20086;-55
2022/11/22 05:15:46;;;;;;;8.02;2.42;;;;;;;1.89;100.00;95491.19;5046389;28;20156;-56
2022/11/22 05:18:12;;;;;;;7.95;2.13;;;;;;;1.90;100.00;95484.78;5046773;28;20440;-58
2022/11/22 05:20:39;;;;;;;8.63;1.67;;;;;;;1.99;100.00;95488.66;5042998;28;20411;-57
2022/11/22 05:25:50;;;;;;;10.02;3.92;;;;;;;2.12;100.00;95500.88;5032376;28;20140;-55
2022/11/22 05:28:17;;;;;;;8.65;2.97;;;;;;;2.13;100.00;95507.81;5048861;28;20055;-56
2022/11/22 05:30:43;;;;;;;11.15;2.85;;;;;;;2.24;100.00;95508.00;5034876;28;20136;-56
2022/11/22 05:33:10;;;;;;;8.98;2.65;;;;;;;2.27;100.00;95502.13;5029396;28;20073;-57
2022/11/22 05:35:36;;;;;;;9.15;2.80;;;;;;;2.42;100.00;95506.88;5029087;28;20053;-58
2022/11/22 05:38:03;;;;;;;10.93;3.45;;;;;;;2.41;100.00;95499.94;5035247;28;20092;-55
2022/11/22 05:40:29;;;;;;;8.52;2.83;;;;;;;2.29;100.00;95495.50;5038744;28;20123;-57
2022/11/22 05:42:58;;;;;;;8.18;2.67;;;;;;;2.24;100.00;95498.09;5047989;28;20492;-55
2022/11/22 05:45:24;;;;;;;14.55;3.47;;;;;;;2.23;100.00;95503.69;5038082;28;20080;-57
2022/11/22 05:47:51;;;;;;;9.13;2.88;;;;;;;2.19;100.00;95493.50;5030139;28;20045;-56
2022/11/22 05:50:17;;;;;;;8.82;2.30;;;;;;;2.19;100.00;95498.84;5039002;28;20336;-55
2022/11/22 05:52:53;;;;;;;13.23;3.17;;;;;;;2.15;100.00;95491.56;5035824;28;20033;-55
2022/11/22 05:55:19;;;;;;;11.07;2.92;;;;;;;2.13;100.00;95505.16;5032869;28;20041;-55
2022/11/22 05:57:46;;;;;;;6.97;2.10;;;;;;;2.03;100.00;95505.00;5041048;28;20128;-56
2022/11/22 06:00:12;;;;;;;8.57;2.60;;;;;;;2.03;100.00;95503.13;5039725;28;20048;-58
2022/11/22 06:02:39;;;;;;;11.50;2.40;;;;;;;2.08;100.00;95515.75;5040234;28;20531;-57
2022/11/22 06:05:06;;;;;;;9.88;3.00;;;;;;;2.16;100.00;95520.69;5026809;28;20501;-58
2022/11/22 06:07:32;;;;;;;6.47;2.83;;;;;;;2.21;100.00;95517.28;5045841;28;20049;-58
2022/11/22 06:09:59;;;;;;;10.57;2.70;;;;;;;2.08;100.00;95523.78;5037000;28;20049;-55
2022/11/22 06:12:26;;;;;;;10.82;2.88;;;;;;;2.05;100.00;95527.75;5034920;28;20077;-57
2022/11/22 06:14:52;;;;;;;6.90;2.80;;;;;;;2.25;100.00;95525.63;5040510;28;20053;-57
2022/11/22 06:17:19;;;;;;;15.15;2.92;;;;;;;2.17;100.00;95534.84;5039434;28;20120;-56
2022/11/22 06:19:45;;;;;;;9.43;2.38;;;;;;;2.16;100.00;95531.38;5043558;28;20124;-57
2022/11/22 06:22:12;;;;;;;11.30;3.08;;;;;;;2.23;100.00;95543.75;5026258;28;20046;-57
2022/11/22 06:24:38;;;;;;;11.65;3.38;;;;;;;2.25;100.00;95544.31;5048376;28;20037;-58
2022/11/22 06:27:05;;;;;;;12.05;3.22;;;;;;;2.23;100.00;95546.41;5036626;28;20553;-57
2022/11/22 06:29:31;;;;;;;11.93;3.13;;;;;;;2.19;100.00;95554.94;5047523;28;20103;-58
2022/11/22 06:31:58;;;;;;;10.77;2.85;;;;;;;2.10;100.00;95552.91;5042455;28;20189;-57
2022/11/22 06:34:29;;;;;;;13.07;2.80;;;;;;;2.18;100.00;95553.28;5028006;28;20049;-58
2022/11/22 06:36:56;;;;;;;11.77;2.33;;;;;;;2.25;100.00;95563.81;5028711;28;20091;-54
2022/11/22 06:39:22;;;;;;;8.95;2.15;;;;;;;2.15;100.00;95569.81;5027836;28;20041;-56
2022/11/22 06:41:49;;;;;;;9.10;2.50;;;;;;;2.30;100.00;95577.25;5049877;28;20396;-56
2022/11/22 06:44:15;;;;;;;6.55;2.10;;;;;;;2.35;100.00;95581.84;5039569;28;20501;-56
2022/11/22 06:46:42;;;;;;;8.45;2.45;;;;;;;2.47;100.00;95585.25;5032416;28;20068;-56
2022/11/22 06:49:08;;;;;;;14.55;3.33;;;;;;;2.43;100.00;95589.47;5039770;28;20260;-54
2022/11/22 06:51:34;;;;;;;6.60;2.67;;;;;;;2.40;100.00;95597.16;5031615;28;20041;-58
2022/11/22 06:54:01;;;;;;;9.65;3.05;;;;;;;2.59;100.00;95605.72;5045573;28;20470;-56
2022/11/22 06:56:35;;;;;;;8.40;2.80;;;;;;;2.66;100.00;95595.69;5059444;28;20040;-57
2022/11/22 06:59:04;;;;;;;8.63;2.55;;;;;;;2.80;100.00;95611.38;5042101;28;20049;-58
2022/11/22 07:01:32;;;;;;;7.75;2.25;;;;;;;2.55;100.00;95601.94;5044462;28;20049;-58
2022/11/22 07:04:00;;;;;;;9.32;2.72;;;;;;;2.54;100.00;95614.47;5043892;28;20128;-58
2022/11/22 07:06:33;;;;;;;6.85;1.98;;;;;;;2.70;100.00;95612.81;5044307;28;20044;-58
2022/11/22 07:09:01;;;;;;;7.60;2.20;;;;;;;2.84;100.00;95617.84;5039495;28;20045;-58
2022/11/22 07:11:29;;;;;;;9.23;2.50;;;;;;;2.79;100.00;95613.22;5034214;28;20827;-57
2022/11/22 07:13:58;;;;;;;10.98;1.80;;;;;;;2.80;100.00;95616.72;5040369;28;20045;-57
2022/11/22 07:16:34;;;;;;;7.93;2.45;;;;;;;2.83;100.00;95613.53;5045524;28;20044;-56
2022/11/22 07:19:00;;;;;;;8.93;2.10;;;;;;;2.78;100.00;95608.13;5032560;28;20049;-58
2022/11/22 07:21:27;;;;;;;6.68;2.15;;;;;;;2.94;100.00;95611.81;5044432;28;20072;-55
2022/11/22 07:23:54;;;;;;;6.10;2.28;;;;;;;2.89;100.00;95612.56;5038090;28;20067;-56
2022/11/22 07:26:22;;;;;;;8.65;2.20;;;;;;;2.85;100.00;95622.94;5036920;28;20037;-58
2022/11/22 07:28:49;;;;;;;6.18;1.73;;;;;;;2.87;100.00;95622.69;5042039;28;20076;-61
2022/11/22 07:31:17;;;;;;;6.18;1.98;;;;;;;2.92;100.00;95616.63;5032368;28;20103;-60
2022/11/22 07:33:43;;;;;;;5.63;1.85;;;;;;;2.88;100.00;95629.69;5041764;28;20252;-60
2022/11/22 07:36:18;;;;;;;9.48;2.00;;;;;;;2.92;100.00;95625.44;5043480;28;20440;-61
2022/11/22 07:38:47;;;;;;;12.68;2.50;;;;;;;2.84;100.00;95634.69;5038812;28;20199;-61
2022/11/22 07:41:15;;;;;;;14.20;2.10;;;;;;;2.90;100.00;95637.41;5051583;28;20187;-60
2022/11/22 07:43:41;;;;;;;5.22;2.03;;;;;;;2.92;100.00;95638.81;5050684;28;20046;-61
2022/11/22 07:46:14;;;;;;;6.53;2.10;;;;;;;3.11;100.00;95641.19;5060245;28;20068;-59
2022/11/22 07:48:41;;;;;;;8.50;2.15;;;;;;;3.11;100.00;95641.19;5042325;28;20506;-60
2022/11/22 07:51:07;;;;;;;8.98;2.42;;;;;;;2.98;100.00;95648.53;5057902;28;20048;-61
2022/11/22 07:53:34;;;;;;;8.35;2.53;;;;;;;3.01;100.00;95646.41;5063298;28;20112;-61
2022/11/22 07:56:02;;;;;;;6.65;2.30;;;;;;;3.18;100.00;95660.56;5050087;28;20048;-60
2022/11/22 07:58:29;;;;;;;6.63;2.28;;;;;;;3.23;100.00;95660.63;5034015;28;20427;-60
2022/11/22 08:00:56;;;;;;;9.60;2.13;;;;;;;3.21;100.00;95661.94;5045670;28;20128;-60
2022/11/22 08:03:22;;;;;;;8.90;2.15;;;;;;;3.27;100.00;95666.28;5054359;28;20067;-60
2022/11/22 08:05:59;;;;;;;9.02;1.85;;;;;;;3.16;100.00;95672.56;5029510;28;20072;-59
2022/11/22 08:08:25;;;;;;;8.38;2.05;;;;;;;3.22;100.00;95671.56;5052098;28;20056;-58
2022/11/22 08:10:52;;;;;;;6.65;2.20;;;;;;;3.27;100.00;95666.28;5035012;28;20045;-58
2022/11/22 08:13:18;;;;;;;8.60;2.35;;;;;;;3.50;100.00;95681.28;5043570;28;20106;-61
2022/11/22 08:15:47;;;;;;;10.48;3.00;;;;;;;3.60;100.00;95675.25;5040131;28;20037;-60
2022/11/22 08:18:14;;;;;;;9.70;2.72;;;;;;;3.69;100.00;95675.63;5026322;28;20060;-58
2022/11/22 08:20:40;;;;;;;6.55;2.25;;;;;;;3.56;100.00;95666.13;5035851;28;20128;-61
2022/11/22 08:23:07;;;;;;;8.23;2.28;;;;;;;3.57;100.00;95672.28;5026304;28;20076;-61
2022/11/22 08:25:33;;;;;;;8.82;2.45;;;;;;;3.60;100.00;95677.94;5037586;28;20123;-61
2022/11/22 08:28:00;;;;;;;8.70;1.90;;;;;;;3.68;100.00;95673.22;5044959;28;20720;-60
2022/11/22 08:30:26;;;;;;;8.13;2.00;;;;;;;3.70;100.00;95666.56;5035108;28;20440;-61
2022/11/22 08:32:54;;;;;;;4.90;1.77;;;;;;;3.72;100.00;95664.44;5043537;28;20049;-60
2022/11/22 08:35:21;;;;;;;8.68;2.30;;;;;;;3.83;100.00;95665.34;5042941;28;20119;-61
2022/11/22 08:37:47;;;;;;;7.32;2.28;;;;;;;3.91;100.00;95664.09;5025576;28;20519;-61
2022/11/22 08:40:14;;;;;;;16.75;6.18;;;;;;;3.98;100.00;95654.00;5036416;28;20120;-59
2022/11/22 08:42:40;;;;;;;17.73;8.98;;;;;;;4.16;100.00;95649.34;5043406;28;20828;-60
2022/11/22 08:45:07;;;;;;;10.63;2.72;;;;;;;4.29;100.00;95654.31;5041529;28;20503;-60
2022/11/22 08:47:33;;;;;;;8.13;2.10;;;;;;;4.43;100.00;95649.31;5033109;28;20065;-60
2022/11/22 08:50:00;;;;;;;4.90;1.90;;;;;;;4.57;100.00;95648.88;5041428;28;20120;-60
2022/11/22 08:52:26;;;;;;;7.90;2.28;;;;;;;4.43;100.00;95633.22;5029684;28;20527;-60
2022/11/22 08:54:53;;;;;;;6.75;2.42;;;;;;;4.42;100.00;95638.84;5026138;28;20114;-61
2022/11/22 08:57:19;;;;;;;10.68;3.90;;;;;;;4.39;100.00;95636.69;5037381;28;20041;-60
2022/11/22 08:59:46;;;;;;;10.02;2.92;;;;;;;4.29;100.00;95645.44;5045638;28;20061;-59
2022/11/22 09:02:12;;;;;;;11.60;5.35;;;;;;;4.31;100.00;95635.28;5054899;28;20115;-59
2022/11/22 09:04:39;;;;;;;9.43;3.03;;;;;;;4.40;100.00;95624.91;5045106;28;20068;-60
2022/11/22 09:07:05;;;;;;;7.75;2.60;;;;;;;4.47;100.00;95617.47;5049029;28;20045;-59
2022/11/22 09:09:52;;;;;;;9.35;2.80;;;;;;;4.67;100.00;95616.00;5047299;28;20044;-59
2022/11/22 09:12:18;;;;;;;6.25;2.40;;;;;;;4.76;100.00;95616.34;5044115;28;20069;-58
2022/11/22 09:14:45;;;;;;;9.57;2.97;;;;;;;4.72;100.00;95618.69;5042710;28;20045;-58
2022/11/22 09:17:11;;;;;;;10.55;3.25;;;;;;;4.64;100.00;95621.88;5041393;28;20397;-60
2022/11/22 09:19:43;;;;;;;9.82;4.15;;;;;;;4.67;100.00;95616.81;5028084;28;20040;-59
2022/11/22 09:22:10;;;;;;;7.93;3.05;;;;;;;4.64;100.00;95619.22;5040890;28;20051;-60
2022/11/22 09:24:36;;;;;;;9.15;2.50;;;;;;;4.59;100.00;95619.97;5040546;28;20041;-58
2022/11/22 09:27:03;;;;;;;5.43;1.88;;;;;;;4.70;100.00;95628.88;5037722;28;20136;-59
2022/11/22 09:29:29;;;;;;;6.75;1.80;;;;;;;4.84;100.00;95626.56;5043749;28;20556;-58
2022/11/22 09:31:56;;;;;;;7.00;1.80;;;;;;;4.90;100.00;95625.53;5042725;28;20048;-59
2022/11/22 09:34:22;;;;;;;8.95;2.83;;;;;;;4.92;100.00;95633.31;5039268;28;20049;-61
2022/11/22 09:36:49;;;;;;;8.20;2.78;;;;;;;4.94;100.00;95634.69;5041468;28;20056;-60
2022/11/22 09:39:15;;;;;;;7.68;2.15;;;;;;;5.02;100.00;95646.00;5044484;28;20049;-60
2022/11/22 09:42:10;;;;;;;5.15;1.98;;;;;;;5.05;100.00;95645.47;5047741;28;20044;-59
2022/11/22 09:45:06;;;;;;;6.93;1.48;;;;;;;5.01;100.00;95647.06;5030905;28;20072;-59
2022/11/22 09:47:59;;;;;;;7.75;1.67;;;;;;;5.05;100.00;95650.84;5049258;28;20226;-60
2022/11/22 09:51:16;;;;;;;10.65;1.85;;;;;;;5.05;100.00;95658.91;5040492;28;20128;-60
2022/11/22 09:53:58;;;;;;;7.45;1.33;;;;;;;5.12;100.00;95661.34;5039338;28;20482;-60
2022/11/22 09:56:26;;;;;;;9.55;1.38;;;;;;;5.13;100.00;95666.47;5049144;28;20401;-60
2022/11/22 09:59:04;;;;;;;4.22;1.20;;;;;;;5.21;100.00;95659.78;5033826;28;20440;-60
2022/11/22 10:01:39;;;;;;;6.90;1.50;;;;;;;5.26;100.00;95669.72;5028406;28;20501;-60
2022/11/22 10:04:19;;;;;;;5.93;1.25;;;;;;;5.33;100.00;95673.00;5047491;28;20037;-60
2022/11/22 10:06:51;;;;;;;7.35;1.40;;;;;;;5.37;100.00;95670.59;5039819;28;20570;-59
2022/11/22 10:09:29;;;;;;;8.35;1.80;;;;;;;5.43;100.00;95675.75;5029883;28;20073;-60
2022/11/22 10:12:02;;;;;;;8.05;1.50;;;;;;;5.60;99.80;95680.91;5041097;28;20421;-59
2022/11/22 10:14:46;;;;;;;4.63;1.05;;;;;;;5.73;98.76;95682.31;5044967;28;20075;-60
2022/11/22 10:17:50;;;;;;;15.50;5.90;;;;;;;5.64;98.13;95680.41;5046670;28;20468;-60
2022/11/22 10:20:43;;;;;;;7.18;1.98;;;;;;;5.74;98.63;95683.13;5037738;28;20037;-61
2022/11/22 10:23:21;;;;;;;8.90;1.58;;;;;;;5.68;97.96;95684.19;5033399;28;20136;-62
2022/11/22 10:25:58;;;;;;;8.00;2.80;;;;;;;5.60;95.67;95685.47;5022918;28;20044;-59
2022/11/22 10:28:47;;;;;;;5.22;1.92;;;;;;;5.66;96.49;95687.13;5039647;28;20540;-59
2022/11/22 10:31:13;;;;;;;10.15;2.28;;;;;;;5.72;93.95;95690.66;5044200;28;20452;-56
2022/11/22 10:33:54;;;;;;;11.25;3.75;;;;;;;5.77;95.83;95689.84;5033968;28;20040;-59
2022/11/22 10:36:26;;;;;;;4.63;1.52;;;;;;;5.71;93.16;95694.38;5034608;28;20100;-56
2022/11/22 10:39:16;;;;;;;6.68;2.47;;;;;;;5.77;92.96;95687.97;5044899;28;20041;-57
2022/11/22 10:41:58;;;;;;;6.82;1.50;;;;;;;5.84;93.47;95693.91;5041599;28;20045;-57
2022/11/22 10:44:44;;;;;;;;;;;;;;;5.95;94.86;95696.63;5029868;28;20099;-58
2022/11/22 10:47:28;;;;;;;10.40;3.28;;;;;;;5.94;93.19;95695.03;5041639;28;20008;-57
2022/11/22 10:50:18;;;;;;;6.40;2.80;;;;;;;5.93;91.82;95696.88;5036270;28;20050;-58
2022/11/22 10:53:04;;;;;;;23.55;11.90;;;;;;;5.92;92.32;95697.16;5037584;28;20036;-58
2022/11/22 10:56:12;;;;;;;8.80;3.67;;;;;;;6.08;90.55;95693.47;5045692;28;20099;-59
2022/11/22 10:58:58;;;;;;;4.22;1.70;;;;;;;6.05;91.50;95695.88;5038428;28;20132;-59
2022/11/22 11:01:39;;;;;;;3.63;1.15;;;;;;;6.03;89.34;95687.25;5049939;28;20451;-59
2022/11/22 11:04:08;;;;;;;5.93;1.15;;;;;;;6.16;89.81;95688.66;5038211;28;20120;-59
2022/11/22 11:06:42;;;;;;;8.95;4.38;;;;;;;6.20;88.06;95681.69;5051092;28;20393;-58
2022/11/22 11:09:47;;;;;;;10.05;2.67;;;;;;;6.12;86.58;95688.41;5044733;28;20040;-58
2022/11/22 11:12:37;;;;;;;8.60;2.25;;;;;;;6.13;85.53;95681.94;5054069;28;20059;-57
2022/11/22 11:15:13;;;;;;;5.85;0.95;;;;;;;6.28;81.06;95670.41;5033557;28;20049;-56
2022/11/22 11:17:42;;;;;;;5.57;1.25;;;;;;;6.36;82.96;95666.38;5043980;28;20040;-58
2022/11/22 11:20:40;;;;;;;3.75;0.80;;;;;;;6.33;82.64;95667.72;5045681;28;20565;-58
2022/11/22 11:23:09;;;;;;;4.32;1.08;;;;;;;6.14;81.95;95666.59;5033748;28;20263;-56
2022/11/22 11:25:47;;;;;;;5.35;1.10;;;;;;;6.27;80.95;95663.44;5027551;28;20132;-58
2022/11/22 11:28:21;;;;;;;10.45;3.85;;;;;;;6.15;81.70;95662.88;5032119;28;20069;-54
2022/11/22 11:30:55;;;;;;;22.85;9.98;;;;;;;6.06;83.23;95667.94;5028145;28;20045;-57
2022/11/22 11:33:24;;;;;;;9.25;3.83;;;;;;;6.21;84.15;95656.41;5026399;28;20125;-58
2022/11/22 11:35:55;;;;;;;12.48;6.25;;;;;;;6.21;83.54;95651.03;5044278;28;20415;-52
2022/11/22 11:38:35;;;;;;;8.55;2.28;;;;;;;6.24;84.15;95653.19;5046567;28;20047;-58
2022/11/22 11:41:21;;;;;;;11.40;2.05;;;;;;;6.16;83.45;95661.78;5028012;28;20045;-57
2022/11/22 11:43:48;;;;;;;4.85;1.58;;;;;;;6.17;84.42;95644.59;5041188;28;20086;-58
2022/11/22 11:46:16;;;;;;;7.63;2.72;;;;;;;6.18;83.80;95635.44;5026728;28;20517;-58
2022/11/22 11:48:44;;;;;;;5.45;1.70;;;;;;;6.28;84.74;95640.84;5038446;28;20045;-55
2022/11/22 11:51:15;;;;;;;9.70;3.47;;;;;;;6.19;82.45;95629.81;5046023;28;20472;-57
2022/11/22 11:53:49;;;;;;;;;;;;;;;6.15;82.16;95628.72;5032612;28;20041;-58
2022/11/22 11:56:32;;;;;;;5.43;1.08;;;;;;;6.14;81.11;95634.34;5026096;28;19921;-57
2022/11/22 11:59:05;;;;;;;3.58;1.33;;;;;;;6.02;81.44;95626.53;5042514;28;20049;-57